KINS

Creech AFB Airport

Indian Springs, Nevada, USA
METAR KINS 231958Z AUTO 00000KT 10SM CLR 23/05 A2999 RMK AO2 SLP125 T02320051 $
Observed Flight Rules
Oct-23 @ 19:58 UTC (50 minutes ago) Visual Flight Rules
Visibility Clouds
10 miles
  • Clear skies
Temperatures Readings
Current 23°C / 73°F
Dewpoint 5°C / 41°F
Humidity 31%
Altimeter 29.99" Hg
Pressure 1012.5 hPa
Elevation 955
METAR KINS 231958Z AUTO 00000KT 10SM CLR 23/05 A2999 RMK AO2 SLP125 T02320051 $
Observed Flight Rules
Oct-23 @ 19:58 UTC
(50 minutes ago)
VFR
Clouds
  • Clear skies
Temperature Dewpoint
23°C / 73°F 5°C / 41°F
Humidity Altimeter Pressure
31% 29.99" Hg 1012.5 hPa